.
WxDataArchive / Data Records for 2015-03-13
2015-03-12 March 2015 2015-03-14

Data Records for Friday, 13 March 2015

Time	Temp	Chill	HIndex	Humid	Dewpt	 Wind 	HiWind	WindDir	Rain 	Barom
-----	----	-----	------	-----	-----	------	------	-------	-----	-----
00:00	34.0	34.0	34.0	73	26.3	2	5	90	0.00	30.422 
00:05	33.8	33.8	33.8	73	26.1	2	5	90	0.00	30.422 
00:10	33.8	33.8	33.8	73	26.1	2	7	90	0.00	30.422 
00:15	33.8	33.8	33.8	73	26.1	2	6	90	0.00	30.414 
00:20	33.8	33.8	33.8	73	26.1	3	6	90	0.00	30.414 
00:25	33.8	33.8	33.8	73	26.1	2	4	90	0.00	30.414 
00:30	33.8	33.8	33.8	72	25.7	2	4	90	0.00	30.407 
00:35	33.8	33.8	33.8	72	25.7	1	3	90	0.00	30.407 
00:40	33.7	33.7	33.7	72	25.7	1	3	90	0.00	30.407 
00:45	33.7	33.7	33.7	73	26.0	2	4	90	0.00	30.403 
00:50	33.7	33.7	33.7	73	26.0	1	4	90	0.00	30.403 
00:55	33.5	33.5	33.5	73	25.8	2	4	90	0.00	30.403 
01:00	33.5	33.5	33.5	73	25.8	1	4	68	0.00	30.391 
01:05	33.4	33.4	33.4	73	25.7	2	5	68	0.00	30.391 
01:10	33.4	33.4	33.4	73	25.7	2	5	112	0.00	30.391 
01:15	33.4	33.4	33.4	73	25.7	2	6	90	0.00	30.380 
01:20	33.4	33.4	33.4	73	25.7	2	7	90	0.00	30.380 
01:25	33.4	33.4	33.4	73	25.7	1	4	90	0.00	30.380 
01:30	33.4	33.4	33.4	73	25.7	2	6	90	0.00	30.368 
01:35	33.4	33.4	33.4	73	25.7	2	4	90	0.00	30.368 
01:40	33.4	33.4	33.4	72	25.4	2	5	112	0.00	30.368 
01:45	33.4	33.4	33.4	73	25.7	1	4	90	0.00	30.375 
01:50	33.4	33.4	33.4	73	25.7	1	3	90	0.00	30.375 
01:55	33.4	33.4	33.4	73	25.7	1	3	90	0.00	30.375 
02:00	33.2	33.2	33.2	73	25.5	1	3	90	0.00	30.375 
02:05	33.2	33.2	33.2	73	25.5	1	3	90	0.00	30.375 
02:10	33.1	33.1	33.1	74	25.7	1	3	90	0.00	30.375 
02:15	32.9	32.9	32.9	74	25.5	1	3	90	0.00	30.366 
02:20	32.9	32.9	32.9	74	25.5	0	3	90	0.00	30.366 
02:25	32.8	32.8	32.8	75	25.8	1	5	90	0.00	30.366 
02:30	32.7	32.7	32.7	75	25.7	1	4	112	0.00	30.356 
02:35	32.7	32.7	32.7	75	25.7	1	3	112	0.00	30.356 
02:40	32.5	32.5	32.5	76	25.8	1	3	112	0.00	30.356 
02:45	32.5	32.5	32.5	76	25.8	1	4	112	0.00	30.359 
02:50	32.5	32.5	32.5	76	25.8	0	2	112	0.00	30.359 
02:55	32.5	32.5	32.5	76	25.8	0	1	112	0.00	30.359 
03:00	32.5	32.5	32.5	76	25.8	0	1	112	0.00	30.349 
03:05	32.4	32.4	32.4	77	26.0	1	4	112	0.00	30.349 
03:10	32.4	32.4	32.4	77	26.0	0	2	112	0.00	30.349 
03:15	32.2	32.2	32.2	77	25.8	1	5	112	0.00	30.337 
03:20	32.2	32.2	32.2	77	25.8	2	5	90	0.00	30.337 
03:25	32.2	32.2	32.2	77	25.8	0	3	112	0.00	30.337 
03:30	32.2	32.2	32.2	77	25.8	0	1	112	0.00	30.331 
03:35	32.1	32.1	32.1	77	25.7	0	1	112	0.00	30.331 
03:40	32.1	32.1	32.1	77	25.7	0	1	112	0.00	30.331 
03:45	31.9	31.9	31.9	77	25.5	0	3	112	0.00	30.329 
03:50	31.9	31.9	31.9	77	25.5	0	2	112	0.00	30.329 
03:55	31.9	31.9	31.9	77	25.5	0	3	112	0.00	30.329 
04:00	31.9	31.9	31.9	78	25.8	0	1	112	0.00	30.328 
04:05	31.8	31.8	31.8	78	25.7	0	0	---	0.00	30.328 
04:10	31.8	31.8	31.8	78	25.7	0	2	112	0.00	30.328 
04:15	31.8	31.8	31.8	78	25.7	0	2	112	0.00	30.323 
04:20	31.9	31.9	31.9	77	25.5	0	2	112	0.00	30.323 
04:25	31.9	31.9	31.9	77	25.5	0	2	112	0.00	30.323 
04:30	31.9	31.9	31.9	77	25.5	1	3	112	0.00	30.309 
04:35	31.9	31.9	31.9	77	25.5	0	2	112	0.00	30.309 
04:40	31.9	31.9	31.9	77	25.5	0	0	---	0.00	30.309 
04:45	31.9	31.9	31.9	77	25.5	0	1	112	0.00	30.310 
04:50	31.9	31.9	31.9	77	25.5	0	2	112	0.00	30.310 
04:55	31.9	31.9	31.9	77	25.5	0	2	112	0.00	30.310 
05:00	32.1	32.1	32.1	77	25.7	0	1	112	0.00	30.304 
05:05	32.1	32.1	32.1	77	25.7	0	2	68	0.00	30.304 
05:10	32.1	32.1	32.1	77	25.7	0	3	68	0.00	30.304 
05:15	32.1	32.1	32.1	77	25.7	0	3	68	0.00	30.299 
05:20	32.1	32.1	32.1	76	25.4	1	4	135	0.00	30.299 
05:25	32.2	32.2	32.2	76	25.5	1	4	135	0.00	30.299 
05:30	32.2	32.2	32.2	76	25.5	2	3	112	0.00	30.295 
05:35	32.1	32.1	32.1	76	25.4	1	4	68	0.00	30.295 
05:40	32.1	32.1	32.1	76	25.4	1	4	90	0.00	30.295 
05:45	32.1	32.1	32.1	76	25.4	1	3	90	0.00	30.292 
05:50	31.9	31.9	31.9	76	25.2	0	3	90	0.00	30.292 
05:55	31.9	31.9	31.9	76	25.2	0	1	90	0.00	30.292 
06:00	31.9	31.9	31.9	76	25.2	0	2	90	0.00	30.295 
06:05	31.9	31.9	31.9	76	25.2	1	3	90	0.00	30.295 
06:10	31.9	31.9	31.9	76	25.2	0	2	90	0.00	30.295 
06:15	31.9	31.9	31.9	76	25.2	1	4	90	0.00	30.291 
06:20	31.9	31.9	31.9	76	25.2	1	4	90	0.00	30.291 
06:25	31.9	31.9	31.9	76	25.2	1	3	90	0.00	30.291 
06:30	31.9	31.9	31.9	76	25.2	0	3	90	0.00	30.284 
06:35	32.1	32.1	32.1	76	25.4	0	2	90	0.00	30.284 
06:40	32.1	32.1	32.1	76	25.4	1	3	90	0.00	30.284 
06:45	32.1	32.1	32.1	76	25.4	0	3	90	0.00	30.282 
06:50	32.1	32.1	32.1	76	25.4	1	3	90	0.00	30.282 
06:55	32.1	32.1	32.1	76	25.4	1	3	90	0.00	30.282 
07:00	32.1	32.1	32.1	76	25.4	0	2	90	0.00	30.280 
07:05	32.1	32.1	32.1	76	25.4	1	4	90	0.00	30.280 
07:10	32.2	32.2	32.2	76	25.5	1	3	90	0.00	30.280 
07:15	32.2	32.2	32.2	76	25.5	1	4	90	0.00	30.280 
07:20	32.2	32.2	32.2	76	25.5	1	3	90	0.00	30.280 
07:25	32.2	32.2	32.2	77	25.8	0	2	90	0.00	30.280 
07:30	32.1	32.1	32.1	77	25.7	0	2	90	0.00	30.275 
07:35	32.1	32.1	32.1	77	25.7	0	2	90	0.00	30.275 
07:40	32.1	32.1	32.1	77	25.7	0	1	90	0.00	30.275 
07:45	32.1	32.1	32.1	77	25.7	0	1	90	0.00	30.274 
07:50	32.1	32.1	32.1	78	26.0	0	2	90	0.00	30.274 
07:55	32.1	32.1	32.1	78	26.0	0	0	---	0.00	30.274 
08:00	32.1	32.1	32.1	78	26.0	0	1	90	0.00	30.278 
08:05	32.1	32.1	32.1	78	26.0	0	0	---	0.00	30.278 
08:10	32.1	32.1	32.1	78	26.0	0	1	90	0.00	30.278 
08:15	32.1	32.1	32.1	78	26.0	0	1	90	0.00	30.276 
08:20	32.1	32.1	32.1	78	26.0	0	1	90	0.00	30.276 
08:25	32.1	32.1	32.1	78	26.0	0	3	90	0.00	30.276 
08:30	32.2	32.2	32.2	78	26.1	1	3	90	0.00	30.271 
08:35	32.2	32.2	32.2	78	26.1	0	3	90	0.00	30.271 
08:40	32.2	32.2	32.2	78	26.1	0	2	90	0.00	30.271 
08:45	32.4	32.4	32.4	78	26.3	0	2	90	0.00	30.276 
08:50	32.4	32.4	32.4	78	26.3	1	3	90	0.00	30.276 
08:55	32.5	32.5	32.5	77	26.1	2	4	90	0.00	30.276 
09:00	32.7	32.7	32.7	77	26.3	1	3	90	0.00	30.269 
09:05	32.7	32.7	32.7	77	26.3	1	3	90	0.00	30.269 
09:10	32.8	32.8	32.8	77	26.4	1	3	90	0.00	30.269 
09:15	32.9	32.9	32.9	77	26.5	0	2	90	0.00	30.271 
09:20	33.1	33.1	33.1	77	26.7	1	3	90	0.00	30.271 
09:25	33.1	33.1	33.1	77	26.7	1	3	90	0.00	30.271 
09:30	33.1	33.1	33.1	76	26.4	1	3	90	0.00	30.263 
09:35	33.2	33.2	33.2	76	26.5	2	4	90	0.00	30.263 
09:40	33.2	33.2	33.2	76	26.5	3	5	90	0.00	30.263 
09:45	33.2	33.2	33.2	77	26.8	1	4	90	0.00	30.254 
09:50	33.2	33.2	33.2	77	26.8	1	3	90	0.00	30.254 
09:55	33.2	33.2	33.2	77	26.8	2	5	90	0.00	30.254 
10:00	33.4	33.4	33.4	77	27.0	1	3	90	0.00	30.250 
10:05	33.4	33.4	33.4	77	27.0	1	4	90	0.00	30.250 
10:10	33.4	33.4	33.4	77	27.0	1	4	90	0.00	30.250 
10:15	33.5	33.5	33.5	77	27.1	0	2	90	0.00	30.252 
10:20	33.7	33.7	33.7	76	27.0	0	1	90	0.00	30.252 
10:25	33.8	33.8	33.8	76	27.1	0	3	90	0.00	30.252 
10:30	34.1	34.1	34.1	75	27.0	0	1	90	0.00	30.258 
10:35	34.3	34.3	34.3	75	27.2	0	0	---	0.00	30.258 
10:40	34.4	34.4	34.4	75	27.3	0	1	90	0.00	30.258 
10:45	34.6	34.6	34.6	75	27.5	0	1	90	0.00	30.254 
10:50	34.7	34.7	34.7	75	27.6	0	1	90	0.00	30.254 
10:55	34.9	34.9	34.9	75	27.8	0	1	90	0.00	30.254 
11:00	34.9	34.9	34.9	74	27.5	0	2	90	0.00	30.245 
11:05	35.0	35.0	35.0	74	27.6	0	2	90	0.00	30.245 
11:10	35.2	35.2	35.2	73	27.4	1	2	90	0.00	30.245 
11:15	35.3	35.3	35.3	73	27.5	1	2	90	0.00	30.243 
11:20	35.6	35.6	35.6	73	27.8	0	2	90	0.00	30.243 
11:25	35.8	35.8	35.8	72	27.7	1	2	90	0.00	30.243 
11:30	36.0	36.0	36.0	72	27.9	1	2	90	0.00	30.241 
11:35	36.5	36.5	36.5	71	28.0	1	2	90	0.00	30.241 
11:40	36.5	36.5	36.5	71	28.0	1	2	90	0.00	30.241 
11:45	36.5	36.5	36.5	71	28.0	1	4	90	0.00	30.239 
11:50	36.6	36.6	36.6	72	28.4	1	3	90	0.00	30.239 
11:55	36.8	36.8	36.8	72	28.6	0	3	90	0.00	30.239 
12:00	36.9	36.9	36.9	72	28.7	1	3	90	0.00	30.237 
12:05	37.2	37.2	37.2	73	29.4	0	2	90	0.00	30.237 
12:10	37.2	37.2	37.2	72	29.0	2	4	90	0.00	30.237 
12:15	37.2	37.2	37.2	72	29.0	1	3	90	0.00	30.232 
12:20	37.5	37.5	37.5	72	29.3	2	4	90	0.00	30.232 
12:25	37.6	37.6	37.6	72	29.4	2	4	90	0.00	30.232 
12:30	37.8	37.8	37.8	73	29.9	2	5	112	0.00	30.221 
12:35	37.8	37.8	37.8	73	29.9	2	4	112	0.00	30.221 
12:40	37.9	37.9	37.9	74	30.4	1	3	90	0.00	30.221 
12:45	38.2	38.2	38.2	73	30.3	0	4	90	0.00	30.217 
12:50	38.3	38.3	38.3	73	30.4	0	2	90	0.00	30.217 
12:55	38.3	38.3	38.3	73	30.4	1	3	90	0.00	30.217 
13:00	38.5	38.5	38.5	73	30.6	1	3	90	0.00	30.214 
13:05	38.8	38.8	38.8	74	31.2	0	2	90	0.00	30.214 
13:10	39.1	39.1	39.1	73	31.2	0	1	90	0.00	30.214 
13:15	39.2	39.2	39.2	72	30.9	0	1	90	0.00	30.209 
13:20	39.3	39.3	39.3	73	31.4	0	1	90	0.00	30.209 
13:25	39.6	39.6	39.6	74	32.0	0	1	90	0.00	30.209 
13:30	39.8	39.8	39.8	74	32.2	0	1	90	0.00	30.205 
13:35	39.6	39.6	39.6	73	31.7	0	2	90	0.00	30.205 
13:40	39.8	39.8	39.8	74	32.2	0	1	90	0.00	30.205 
13:45	39.9	39.9	39.9	75	32.6	0	2	90	0.00	30.204 
13:50	40.1	40.1	40.1	74	32.5	0	2	90	0.00	30.204 
13:55	40.3	40.3	40.3	75	33.0	0	3	90	0.00	30.204 
14:00	40.5	40.5	40.5	75	33.2	0	1	90	0.00	30.200 
14:05	40.6	40.6	40.6	75	33.3	0	1	90	0.00	30.200 
14:10	40.6	40.6	40.6	75	33.3	0	1	90	0.00	30.200 
14:15	40.8	40.8	40.8	75	33.5	0	1	90	0.00	30.189 
14:20	40.9	40.9	40.9	75	33.6	0	1	90	0.00	30.189 
14:25	40.9	40.9	40.9	75	33.6	0	1	90	0.00	30.189 
14:30	40.8	40.8	40.8	75	33.5	0	2	90	0.00	30.184 
14:35	40.8	40.8	40.8	76	33.8	0	1	90	0.00	30.184 
14:40	40.9	40.9	40.9	77	34.3	0	1	90	0.00	30.184 
14:45	41.1	41.1	41.1	77	34.4	0	2	90	0.00	30.173 
14:50	41.3	41.3	41.3	78	35.0	0	1	90	0.00	30.173 
14:55	41.5	41.5	41.5	78	35.2	0	3	90	0.00	30.173 
15:00	41.6	41.6	41.6	79	35.6	0	1	90	0.00	30.171 
15:05	41.8	41.8	41.8	80	36.1	0	1	90	0.00	30.171 
15:10	41.8	41.8	41.8	80	36.1	0	2	90	0.00	30.171 
15:15	41.9	41.9	41.9	81	36.5	0	1	90	0.00	30.161 
15:20	42.1	42.1	42.1	82	37.0	0	2	90	0.00	30.161 
15:25	42.2	42.2	42.2	82	37.1	0	1	90	0.00	30.161 
15:30	42.2	42.2	42.2	82	37.1	0	1	90	0.00	30.155 
15:35	42.3	42.3	42.3	83	37.5	0	1	90	0.00	30.155 
15:40	42.6	42.6	42.6	83	37.8	0	1	90	0.00	30.155 
15:45	42.6	42.6	42.6	83	37.8	0	0	---	0.00	30.154 
15:50	42.6	42.6	42.6	83	37.8	0	0	---	0.00	30.154 
15:55	42.6	42.6	42.6	83	37.8	0	0	---	0.00	30.154 
16:00	42.6	42.6	42.6	84	38.1	0	1	90	0.00	30.151 
16:05	42.6	42.6	42.6	84	38.1	0	0	---	0.01	30.151 
16:10	42.6	42.6	42.6	84	38.1	0	1	90	0.00	30.151 
16:15	42.6	42.6	42.6	84	38.1	0	1	90	0.00	30.150 
16:20	42.6	42.6	42.6	85	38.4	0	1	90	0.00	30.150 
16:25	42.6	42.6	42.6	85	38.4	0	1	90	0.00	30.150 
16:30	42.6	42.6	42.6	85	38.4	0	0	---	0.00	30.140 
16:35	42.6	42.6	42.6	86	38.7	0	0	---	0.00	30.140 
16:40	42.5	42.5	42.5	86	38.6	0	0	---	0.00	30.140 
16:45	42.6	42.6	42.6	87	39.0	0	0	---	0.00	30.131 
16:50	42.6	42.6	42.6	87	39.0	0	2	90	0.00	30.131 
16:55	42.6	42.6	42.6	87	39.0	0	1	90	0.00	30.131 
17:00	42.6	42.6	42.6	88	39.3	0	2	90	0.00	30.128 
17:05	42.5	42.5	42.5	88	39.2	0	1	90	0.00	30.128 
17:10	42.3	42.3	42.3	88	39.0	0	1	90	0.00	30.128 
17:15	42.3	42.3	42.3	89	39.3	0	1	90	0.00	30.123 
17:20	42.3	42.3	42.3	89	39.3	0	1	90	0.00	30.123 
17:25	42.2	42.2	42.2	89	39.2	0	1	90	0.00	30.123 
17:30	42.3	42.3	42.3	90	39.6	0	2	90	0.00	30.110 
17:35	42.5	42.5	42.5	90	39.8	0	2	90	0.00	30.110 
17:40	42.5	42.5	42.5	90	39.8	0	2	90	0.00	30.110 
17:45	42.5	42.5	42.5	90	39.8	0	2	90	0.00	30.109 
17:50	42.5	42.5	42.5	90	39.8	0	2	90	0.00	30.109 
17:55	42.6	42.6	42.6	91	40.2	0	1	90	0.00	30.109 
18:00	42.6	42.6	42.6	91	40.2	0	2	90	0.00	30.107 
18:05	42.5	42.5	42.5	91	40.1	0	1	90	0.00	30.107 
18:10	42.5	42.5	42.5	91	40.1	0	2	90	0.00	30.107 
18:15	42.5	42.5	42.5	91	40.1	0	1	90	0.00	30.109 
18:20	42.3	42.3	42.3	91	39.9	0	1	90	0.00	30.109 
18:25	42.3	42.3	42.3	92	40.1	0	1	90	0.00	30.109 
18:30	42.3	42.3	42.3	92	40.1	0	2	90	0.00	30.110 
18:35	42.3	42.3	42.3	92	40.1	0	2	90	0.00	30.110 
18:40	42.2	42.2	42.2	92	40.0	0	1	90	0.00	30.110 
18:45	42.2	42.2	42.2	92	40.0	0	1	90	0.00	30.108 
18:50	42.2	42.2	42.2	92	40.0	0	1	90	0.00	30.108 
18:55	42.1	42.1	42.1	92	39.9	0	1	90	0.00	30.108 
19:00	42.1	42.1	42.1	92	39.9	0	2	90	0.00	30.108 
19:05	41.9	41.9	41.9	92	39.7	0	1	90	0.00	30.108 
19:10	41.9	41.9	41.9	93	40.0	0	1	90	0.00	30.108 
19:15	41.9	41.9	41.9	93	40.0	0	1	90	0.00	30.106 
19:20	41.8	41.8	41.8	93	39.9	0	0	---	0.01	30.106 
19:25	41.8	41.8	41.8	93	39.9	0	0	---	0.00	30.106 
19:30	41.8	41.8	41.8	93	39.9	0	0	---	0.00	30.103 
19:35	41.8	41.8	41.8	93	39.9	0	1	90	0.00	30.103 
19:40	41.6	41.6	41.6	93	39.7	0	1	90	0.00	30.103 
19:45	41.6	41.6	41.6	93	39.7	0	1	90	0.00	30.103 
19:50	41.6	41.6	41.6	94	40.0	0	1	90	0.00	30.103 
19:55	41.6	41.6	41.6	94	40.0	0	1	90	0.00	30.103 
20:00	41.6	41.6	41.6	94	40.0	0	2	90	0.00	30.095 
20:05	41.6	41.6	41.6	94	40.0	0	0	---	0.00	30.095 
20:10	41.5	41.5	41.5	94	39.9	0	1	90	0.00	30.095 
20:15	41.3	41.3	41.3	94	39.7	0	1	90	0.00	30.089 
20:20	41.3	41.3	41.3	94	39.7	0	0	---	0.00	30.089 
20:25	41.3	41.3	41.3	94	39.7	0	1	90	0.00	30.089 
20:30	41.3	41.3	41.3	94	39.7	0	1	90	0.00	30.082 
20:35	41.3	41.3	41.3	94	39.7	0	1	90	0.00	30.082 
20:40	41.3	41.3	41.3	94	39.7	0	0	---	0.00	30.082 
20:45	41.2	41.2	41.2	94	39.6	0	1	90	0.00	30.081 
20:50	41.3	41.3	41.3	95	40.0	0	1	90	0.00	30.081 
20:55	41.2	41.2	41.2	94	39.6	0	1	90	0.00	30.081 
21:00	41.2	41.2	41.2	95	39.9	0	0	---	0.00	30.077 
21:05	41.2	41.2	41.2	95	39.9	0	0	---	0.00	30.077 
21:10	41.1	41.1	41.1	95	39.8	0	1	90	0.00	30.077 
21:15	41.1	41.1	41.1	95	39.8	0	1	90	0.00	30.075 
21:20	40.9	40.9	40.9	95	39.6	0	0	---	0.00	30.075 
21:25	40.8	40.8	40.8	95	39.5	0	0	---	0.00	30.075 
21:30	40.8	40.8	40.8	95	39.5	0	0	---	0.00	30.073 
21:35	40.8	40.8	40.8	95	39.5	0	0	---	0.00	30.073 
21:40	40.8	40.8	40.8	95	39.5	0	1	90	0.00	30.073 
21:45	40.8	40.8	40.8	95	39.5	0	0	---	0.00	30.061 
21:50	40.8	40.8	40.8	95	39.5	0	0	---	0.00	30.061 
21:55	40.6	40.6	40.6	95	39.3	0	0	---	0.00	30.061 
22:00	40.6	40.6	40.6	95	39.3	0	0	---	0.00	30.060 
22:05	40.6	40.6	40.6	95	39.3	0	0	---	0.00	30.060 
22:10	40.6	40.6	40.6	95	39.3	0	0	---	0.00	30.060 
22:15	40.6	40.6	40.6	95	39.3	0	0	---	0.00	30.053 
22:20	40.6	40.6	40.6	95	39.3	0	0	---	0.00	30.053 
22:25	40.6	40.6	40.6	95	39.3	0	0	---	0.00	30.053 
22:30	40.8	40.8	40.8	95	39.5	0	0	---	0.00	30.043 
22:35	40.8	40.8	40.8	95	39.5	0	0	---	0.00	30.043 
22:40	40.8	40.8	40.8	95	39.5	0	0	---	0.00	30.043 
22:45	40.8	40.8	40.8	95	39.5	0	0	---	0.00	30.046 
22:50	40.8	40.8	40.8	96	39.7	0	0	---	0.00	30.046 
22:55	40.9	40.9	40.9	96	39.8	0	0	---	0.00	30.046 
23:00	40.9	40.9	40.9	96	39.8	0	0	---	0.00	30.042 
23:05	40.9	40.9	40.9	96	39.8	0	0	---	0.01	30.042 
23:10	40.9	40.9	40.9	96	39.8	0	0	---	0.00	30.042 
23:15	40.8	40.8	40.8	96	39.7	0	0	---	0.00	30.029 
23:20	40.9	40.9	40.9	96	39.8	0	0	---	0.00	30.029 
23:25	40.8	40.8	40.8	96	39.7	0	0	---	0.00	30.029 
23:30	40.8	40.8	40.8	96	39.7	0	0	---	0.00	30.028 
23:35	40.6	40.6	40.6	96	39.5	0	0	---	0.00	30.028 
23:40	40.6	40.6	40.6	96	39.5	0	0	---	0.00	30.028 
23:45	40.8	40.8	40.8	96	39.7	0	0	---	0.01	30.020 
23:50	40.9	40.9	40.9	96	39.8	0	1	90	0.00	30.020 
23:55	41.3	41.3	41.3	96	40.2	0	2	90	0.00	30.020 

CoCoRaHS
IN-AL-39
A2 Web Hosting
Creative Commons License
GoDaddy
search engine by freefind advanced

loaded 2018-11-21 00:34:53 • last modified 2010-11-18 10:43:29
Privacy PolicyDisclaimer
• wx.awcolley.com is powered by PmWiki v.2002016 •
• all content (unless otherwise noted) © 2018 A W Colley